Observation data for Muleshoe on 08/06/2020      Previous  Date       Current Mesonet Observations  Soil Data  Daily Summary Page  Observations in Plain Language
KMUS 060500Z 10008KT 26/16 A3003 RMK A01 T02570158  RH  057%=      5-min Rain = 0
KMUS 060505Z 09007KT 26/16 A3003 RMK A01 T02550158  RH  058%=      5-min Rain = 0
KMUS 060510Z 08005KT 25/16 A3003 RMK A01 T02530159  RH  059%=      5-min Rain = 0
KMUS 060515Z 06003KT 25/16 A3003 RMK A01 T02510159  RH  059%=      5-min Rain = 0
KMUS 060520Z 08003KT 25/16 A3004 RMK A01 T02500158  RH  060%=      5-min Rain = 0
KMUS 060525Z 32002KT 25/16 A3004 RMK A01 T02490159  RH  060%=      5-min Rain = 0
KMUS 060530Z 32001KT 25/16 A3004 RMK A01 T02470159  RH  061%=      5-min Rain = 0
KMUS 060535Z 34001KT 25/16 A3004 RMK A01 T02450159  RH  061%=      5-min Rain = 0
KMUS 060540Z 02002KT 24/16 A3004 RMK A01 T02440159  RH  062%=      5-min Rain = 0
KMUS 060545Z 31002KT 24/16 A3004 RMK A01 T02410159  RH  063%=      5-min Rain = 0
KMUS 060550Z 03002KT 24/16 A3004 RMK A01 T02400159  RH  063%=      5-min Rain = 0
KMUS 060555Z 08004KT 24/16 A3004 RMK A01 T02410159  RH  063%=      5-min Rain = 0
KMUS 060600Z 10006KT 24/16 A3004 RMK A01 T02400159  RH  063%=      5-min Rain = 0
KMUS 060605Z 10007KT 24/16 A3003 RMK A01 T02410159  RH  063%=      5-min Rain = 0
KMUS 060610Z 09005KT 24/16 A3003 RMK A01 T02400159  RH  063%=      5-min Rain = 0
KMUS 060615Z 09004KT 24/16 A3003 RMK A01 T02380159  RH  064%=      5-min Rain = 0
KMUS 060620Z 08005KT 24/16 A3003 RMK A01 T02360159  RH  065%=      5-min Rain = 0
KMUS 060625Z 09006KT 23/16 A3003 RMK A01 T02340159  RH  066%=      5-min Rain = 0
KMUS 060630Z 09006KT 24/16 A3002 RMK A01 T02350159  RH  065%=      5-min Rain = 0
KMUS 060635Z 08005KT 23/16 A3002 RMK A01 T02340159  RH  066%=      5-min Rain = 0
KMUS 060640Z 09005KT 23/16 A3002 RMK A01 T02320159  RH  067%=      5-min Rain = 0
KMUS 060645Z 10006KT 23/16 A3002 RMK A01 T02310159  RH  067%=      5-min Rain = 0
KMUS 060650Z 11006KT 23/16 A3002 RMK A01 T02310159  RH  067%=      5-min Rain = 0
KMUS 060655Z 10007KT 23/16 A3002 RMK A01 T02300159  RH  067%=      5-min Rain = 0
KMUS 060700Z 10006KT 23/16 A3002 RMK A01 T02300159  RH  067%=      5-min Rain = 0
KMUS 060705Z 10006KT 23/16 A3002 RMK A01 T02310159  RH  067%=      5-min Rain = 0
KMUS 060710Z 09007KT 23/16 A3002 RMK A01 T02290159  RH  068%=      5-min Rain = 0
KMUS 060715Z 08007KT 23/16 A3002 RMK A01 T02290159  RH  068%=      5-min Rain = 0
KMUS 060720Z 09007KT 23/16 A3002 RMK A01 T02300159  RH  067%=      5-min Rain = 0
KMUS 060725Z 09006KT 23/16 A3001 RMK A01 T02310159  RH  067%=      5-min Rain = 0
KMUS 060730Z 10005KT 23/16 A3001 RMK A01 T02310159  RH  067%=      5-min Rain = 0
KMUS 060735Z 09004KT 23/16 A3002 RMK A01 T02310159  RH  067%=      5-min Rain = 0
KMUS 060740Z 08004KT 23/16 A3002 RMK A01 T02310160  RH  068%=      5-min Rain = 0
KMUS 060745Z 08003KT 23/16 A3002 RMK A01 T02300160  RH  068%=      5-min Rain = 0
KMUS 060750Z 08004KT 23/16 A3002 RMK A01 T02300161  RH  068%=      5-min Rain = 0
KMUS 060755Z 07005KT 23/16 A3001 RMK A01 T02290161  RH  069%=      5-min Rain = 0
KMUS 060800Z 05005KT 23/16 A3001 RMK A01 T02280161  RH  069%=      5-min Rain = 0
KMUS 060805Z 06004KT 23/16 A3001 RMK A01 T02280162  RH  069%=      5-min Rain = 0
KMUS 060810Z 06005KT 23/16 A3001 RMK A01 T02280162  RH  070%=      5-min Rain = 0
KMUS 060815Z 06006KT 23/16 A3001 RMK A01 T02280162  RH  070%=      5-min Rain = 0
KMUS 060820Z 06007KT 23/16 A30 RMK A01 T02280163  RH  070%=      5-min Rain = 0
KMUS 060825Z 07008KT 23/16 A30 RMK A01 T02270162  RH  070%=      5-min Rain = 0
KMUS 060830Z 08007KT 23/16 A30 RMK A01 T02270163  RH  070%=      5-min Rain = 0
KMUS 060835Z 09007KT 23/16 A30 RMK A01 T02270162  RH  070%=      5-min Rain = 0
KMUS 060840Z 08007KT 23/16 A30 RMK A01 T02280161  RH  069%=      5-min Rain = 0
KMUS 060845Z 08006KT 23/16 A30 RMK A01 T02280161  RH  069%=      5-min Rain = 0
KMUS 060850Z 07006KT 23/16 A30 RMK A01 T02270161  RH  070%=      5-min Rain = 0
KMUS 060855Z 07006KT 23/16 A30 RMK A01 T02270161  RH  069%=      5-min Rain = 0
KMUS 060900Z 09005KT 23/16 A30 RMK A01 T02260161  RH  070%=      5-min Rain = 0
KMUS 060905Z 09004KT 23/16 A30 RMK A01 T02250161  RH  070%=      5-min Rain = 0
KMUS 060910Z 08005KT 22/16 A30 RMK A01 T02240162  RH  071%=      5-min Rain = 0
KMUS 060915Z 02002KT 22/16 A30 RMK A01 T02230161  RH  071%=      5-min Rain = 0
KMUS 060920Z 09004KT 22/16 A3001 RMK A01 T02230162  RH  072%=      5-min Rain = 0
KMUS 060925Z 12005KT 22/16 A3001 RMK A01 T02200162  RH  073%=      5-min Rain = 0
KMUS 060930Z 16002KT 22/16 A3001 RMK A01 T02170162  RH  074%=      5-min Rain = 0
KMUS 060935Z 19002KT 22/16 A3001 RMK A01 T02160161  RH  074%=      5-min Rain = 0
KMUS 060940Z 20004KT 21/16 A3001 RMK A01 T02140159  RH  074%=      5-min Rain = 0
KMUS 060945Z 23007KT 21/16 A3002 RMK A01 T02140157  RH  073%=      5-min Rain = 0
KMUS 060950Z 22005KT 21/16 A3002 RMK A01 T02130156  RH  073%=      5-min Rain = 0
KMUS 060955Z 24006KT 21/16 A3002 RMK A01 T02130155  RH  073%=      5-min Rain = 0
KMUS 061000Z 23007KT 21/16 A3002 RMK A01 T02140155  RH  072%=      5-min Rain = 0
KMUS 061005Z 23007KT 22/16 A3002 RMK A01 T02150155  RH  072%=      5-min Rain = 0
KMUS 061010Z 23006KT 22/16 A3002 RMK A01 T02180155  RH  071%=      5-min Rain = 0
KMUS 061015Z 22005KT 22/16 A3002 RMK A01 T02180156  RH  071%=      5-min Rain = 0
KMUS 061020Z 24005KT 22/16 A3002 RMK A01 T02180156  RH  071%=      5-min Rain = 0
KMUS 061025Z 24006KT 22/16 A3002 RMK A01 T02190157  RH  071%=      5-min Rain = 0
KMUS 061030Z 24007KT 22/16 A3002 RMK A01 T02230158  RH  070%=      5-min Rain = 0
KMUS 061035Z 23007KT 23/16 A3002 RMK A01 T02280157  RH  067%=      5-min Rain = 0
KMUS 061040Z 22006KT 23/16 A3002 RMK A01 T02310156  RH  065%=      5-min Rain = 0
KMUS 061045Z 23007KT 23/16 A3002 RMK A01 T02330155  RH  064%=      5-min Rain = 0
KMUS 061050Z 23007KT 23/16 A3002 RMK A01 T02340155  RH  064%=      5-min Rain = 0
KMUS 061055Z 22007KT 23/16 A3002 RMK A01 T02340155  RH  064%=      5-min Rain = 0
KMUS 061100Z 21007KT 23/15 A3002 RMK A01 T02330154  RH  064%=      5-min Rain = 0
KMUS 061105Z 22005KT 23/15 A3002 RMK A01 T02330154  RH  064%=      5-min Rain = 0
KMUS 061110Z 21007KT 23/15 A3003 RMK A01 T02320153  RH  064%=      5-min Rain = 0
KMUS 061115Z 22006KT 23/15 A3002 RMK A01 T02330151  RH  063%=      5-min Rain = 0
KMUS 061120Z 21006KT 24/15 A3003 RMK A01 T02350149  RH  061%=      5-min Rain = 0
KMUS 061125Z 20004KT 23/15 A3003 RMK A01 T02340149  RH  061%=      5-min Rain = 0
KMUS 061130Z 19003KT 23/15 A3003 RMK A01 T02320150  RH  062%=      5-min Rain = 0
KMUS 061135Z 21004KT 23/15 A3003 RMK A01 T02320147  RH  062%=      5-min Rain = 0
KMUS 061140Z 20005KT 23/15 A3004 RMK A01 T02320146  RH  061%=      5-min Rain = 0
KMUS 061145Z 20005KT 23/14 A3004 RMK A01 T02330144  RH  060%=      5-min Rain = 0
KMUS 061150Z 20006KT 23/14 A3004 RMK A01 T02320143  RH  060%=      5-min Rain = 0
KMUS 061155Z 20007KT 23/14 A3004 RMK A01 T02340140  RH  058%=      5-min Rain = 0
KMUS 061200Z 21008KT 24/14 A3004 RMK A01 T02360137  RH  056%=      5-min Rain = 0
KMUS 061205Z 21007KT 24/14 A3004 RMK A01 T02390135  RH  054%=      5-min Rain = 0
KMUS 061210Z 21009KT 24/13 A3004 RMK A01 T02410134  RH  053%=      5-min Rain = 0
KMUS 061215Z 21009KT 24/13 A3004 RMK A01 T02420133  RH  053%=      5-min Rain = 0
KMUS 061220Z 21010KT 24/13 A3004 RMK A01 T02420133  RH  053%=      5-min Rain = 0
KMUS 061225Z 20009KT 24/13 A3004 RMK A01 T02420134  RH  053%=      5-min Rain = 0
KMUS 061230Z 20009KT 24/13 A3004 RMK A01 T02420134  RH  053%=      5-min Rain = 0
KMUS 061235Z 21010KT 24/13 A3004 RMK A01 T02420134  RH  053%=      5-min Rain = 0
KMUS 061240Z 20010KT 24/14 A3004 RMK A01 T02410135  RH  053%=      5-min Rain = 0
KMUS 061245Z 20010KT 24/14 A3004 RMK A01 T02410135  RH  054%=      5-min Rain = 0
KMUS 061250Z 20011KT 24/14 A3004 RMK A01 T02400135  RH  054%=      5-min Rain = 0
KMUS 061255Z 20011KT 24/14 A3004 RMK A01 T02400136  RH  054%=      5-min Rain = 0
KMUS 061300Z 20011KT 24/14 A3004 RMK A01 T02390136  RH  055%=      5-min Rain = 0
KMUS 061305Z 20010KT 24/14 A3005 RMK A01 T02380136  RH  055%=      5-min Rain = 0
KMUS 061310Z 20010KT 24/14 A3005 RMK A01 T02390137  RH  055%=      5-min Rain = 0
KMUS 061315Z 19010KT 24/14 A3005 RMK A01 T02400137  RH  055%=      5-min Rain = 0
KMUS 061320Z 19011KT 25/14 A3005 RMK A01 T02450138  RH  053%=      5-min Rain = 0
KMUS 061325Z 18012KT 25/14 A3005 RMK A01 T02500139  RH  052%=      5-min Rain = 0
KMUS 061330Z 19013KT 25/14 A3005 RMK A01 T02540139  RH  051%=      5-min Rain = 0
KMUS 061335Z 19012KT 26/14 A3005 RMK A01 T02570140  RH  051%=      5-min Rain = 0
KMUS 061340Z 19013G18KT 26/14 A3004 RMK A01 T02580141  RH  050%=      5-min Rain = 0
KMUS 061345Z 19015G20KT 26/14 A3004 RMK A01 T02590141  RH  050%=      5-min Rain = 0
KMUS 061350Z 20014G19KT 26/14 A3005 RMK A01 T02570142  RH  051%=      5-min Rain = 0
KMUS 061355Z 21015G22KT 26/14 A3005 RMK A01 T02580142  RH  051%=      5-min Rain = 0
KMUS 061400Z 21012G18KT 26/14 A3005 RMK A01 T02580143  RH  051%=      5-min Rain = 0
KMUS 061405Z 21011KT 26/14 A3005 RMK A01 T02580144  RH  052%=      5-min Rain = 0
KMUS 061410Z 20012G17KT 26/14 A3005 RMK A01 T02580144  RH  051%=      5-min Rain = 0
KMUS 061415Z 21012G17KT 27/15 A3005 RMK A01 T02650146  RH  050%=      5-min Rain = 0
KMUS 061420Z 21012KT 27/15 A3005 RMK A01 T02730146  RH  048%=      5-min Rain = 0
KMUS 061425Z 21012KT 27/14 A3005 RMK A01 T02730144  RH  047%=      5-min Rain = 0
KMUS 061430Z 21011G16KT 27/14 A3005 RMK A01 T02700144  RH  048%=      5-min Rain = 0
KMUS 061435Z 21012KT 27/14 A3005 RMK A01 T02670144  RH  049%=      5-min Rain = 0
KMUS 061440Z 20010KT 27/14 A3005 RMK A01 T02660144  RH  049%=      5-min Rain = 0
KMUS 061445Z 19009KT 27/14 A3005 RMK A01 T02660144  RH  049%=      5-min Rain = 0
KMUS 061450Z 19008KT 27/15 A3005 RMK A01 T02690146  RH  049%=      5-min Rain = 0
KMUS 061455Z 22011G16KT 27/15 A3006 RMK A01 T02700146  RH  049%=      5-min Rain = 0
KMUS 061500Z 21009KT 27/14 A3006 RMK A01 T02680144  RH  049%=      5-min Rain = 0
KMUS 061505Z 23007KT 27/15 A3006 RMK A01 T02680146  RH  049%=      5-min Rain = 0
KMUS 061510Z 24010G15KT 27/15 A3006 RMK A01 T02700146  RH  049%=      5-min Rain = 0
KMUS 061515Z 22010KT 27/15 A3006 RMK A01 T02710145  RH  048%=      5-min Rain = 0
KMUS 061520Z 21009KT 27/15 A3007 RMK A01 T02710147  RH  049%=      5-min Rain = 0
KMUS 061525Z 22009KT 27/15 A3007 RMK A01 T02720147  RH  048%=      5-min Rain = 0
KMUS 061530Z 22009KT 28/15 A3006 RMK A01 T02750146  RH  047%=      5-min Rain = 0
KMUS 061535Z 22010KT 28/14 A3006 RMK A01 T02780144  RH  046%=      5-min Rain = 0
KMUS 061540Z 22010KT 29/14 A3006 RMK A01 T02850143  RH  044%=      5-min Rain = 0
KMUS 061545Z 21009KT 29/14 A3006 RMK A01 T02850142  RH  043%=      5-min Rain = 0
KMUS 061550Z 21008KT 28/14 A3006 RMK A01 T02830143  RH  044%=      5-min Rain = 0
KMUS 061555Z 22006KT 28/14 A3006 RMK A01 T02840142  RH  044%=      5-min Rain = 0
KMUS 061600Z 20006KT 28/14 A3006 RMK A01 T02830143  RH  044%=      5-min Rain = 0
KMUS 061605Z 21007KT 28/14 A3006 RMK A01 T02820144  RH  045%=      5-min Rain = 0
KMUS 061610Z 21009KT 28/15 A3007 RMK A01 T02840145  RH  044%=      5-min Rain = 0
KMUS 061615Z 21009G15KT 29/15 A3007 RMK A01 T02920145  RH  042%=      5-min Rain = 0
KMUS 061620Z 21011KT 29/14 A3007 RMK A01 T02910144  RH  042%=      5-min Rain = 0
KMUS 061625Z 21008G13KT 29/14 A3007 RMK A01 T02940144  RH  042%=      5-min Rain = 0
KMUS 061630Z 20010KT 29/15 A3007 RMK A01 T02940145  RH  042%=      5-min Rain = 0
KMUS 061635Z 19010G15KT 30/14 A3007 RMK A01 T02950141  RH  041%=      5-min Rain = 0
KMUS 061640Z 19012KT 30/14 A3007 RMK A01 T02980143  RH  041%=      5-min Rain = 0
KMUS 061645Z 20008KT 30/15 A3007 RMK A01 T03000145  RH  040%=      5-min Rain = 0
KMUS 061650Z 19006KT 31/14 A3007 RMK A01 T03060143  RH  039%=      5-min Rain = 0
KMUS 061655Z 22007KT 31/14 A3007 RMK A01 T03110144  RH  038%=      5-min Rain = 0
KMUS 061700Z 20009KT 32/14 A3007 RMK A01 T03150141  RH  036%=      5-min Rain = 0
KMUS 061705Z 20010KT 32/14 A3007 RMK A01 T03220138  RH  034%=      5-min Rain = 0
KMUS 061710Z 19009G15KT 32/14 A3007 RMK A01 T03190140  RH  035%=      5-min Rain = 0
KMUS 061715Z 19009G14KT 32/14 A3007 RMK A01 T03160140  RH  036%=      5-min Rain = 0
KMUS 061720Z 20009KT 32/14 A3007 RMK A01 T03180139  RH  035%=      5-min Rain = 0
KMUS 061725Z 20011KT 32/14 A3007 RMK A01 T03170136  RH  035%=      5-min Rain = 0
KMUS 061730Z 21007G13KT 32/14 A3007 RMK A01 T03170136  RH  035%=      5-min Rain = 0
KMUS 061735Z 19009KT 33/13 A3006 RMK A01 T03250133  RH  032%=      5-min Rain = 0
KMUS 061740Z 19007G13KT 32/13 A3006 RMK A01 T03240132  RH  032%=      5-min Rain = 0
KMUS 061745Z 21012KT 33/13 A3006 RMK A01 T03310127  RH  030%=      5-min Rain = 0
KMUS 061750Z 21010KT 33/13 A3006 RMK A01 T03290125  RH  030%=      5-min Rain = 0
KMUS 061755Z 23009KT 33/13 A3006 RMK A01 T03280128  RH  031%=      5-min Rain = 0
KMUS 061800Z 21007G13KT 33/13 A3005 RMK A01 T03280128  RH  031%=      5-min Rain = 0
KMUS 061805Z 19010KT 33/12 A3005 RMK A01 T03340124  RH  029%=      5-min Rain = 0
KMUS 061810Z 20009KT 34/12 A3005 RMK A01 T03350122  RH  029%=      5-min Rain = 0
KMUS 061815Z 19010KT 34/12 A3005 RMK A01 T03380123  RH  028%=      5-min Rain = 0
KMUS 061820Z 20009KT 34/13 A3005 RMK A01 T03400125  RH  028%=      5-min Rain = 0
KMUS 061825Z 19008G13KT 34/12 A3005 RMK A01 T03410121  RH  027%=      5-min Rain = 0
KMUS 061830Z 18011G18KT 34/12 A3004 RMK A01 T03420120  RH  027%=      5-min Rain = 0
KMUS 061835Z 19010G16KT 34/12 A3004 RMK A01 T03420116  RH  026%=      5-min Rain = 0
KMUS 061840Z 20009G14KT 34/12 A3004 RMK A01 T03410117  RH  027%=      5-min Rain = 0
KMUS 061845Z 19011G16KT 34/11 A3004 RMK A01 T03420110  RH  025%=      5-min Rain = 0
KMUS 061850Z 19011G16KT 35/11 A3004 RMK A01 T03470106  RH  024%=      5-min Rain = 0
KMUS 061855Z 20011G17KT 35/11 A3004 RMK A01 T03480105  RH  024%=      5-min Rain = 0
KMUS 061900Z 20014KT 35/10 A3003 RMK A01 T03500103  RH  023%=      5-min Rain = 0
KMUS 061905Z 20012G18KT 35/11 A3003 RMK A01 T03530107  RH  023%=      5-min Rain = 0
KMUS 061910Z 20013G18KT 35/11 A3003 RMK A01 T03540109  RH  024%=      5-min Rain = 0
KMUS 061915Z 20012G17KT 36/11 A3003 RMK A01 T03550110  RH  024%=      5-min Rain = 0
KMUS 061920Z 21014G20KT 36/10 A3002 RMK A01 T03590102  RH  022%=      5-min Rain = 0
KMUS 061925Z 20013KT 36/11 A3002 RMK A01 T03620105  RH  022%=      5-min Rain = 0
KMUS 061930Z 20013G19KT 36/10 A3002 RMK A01 T03610100  RH  021%=      5-min Rain = 0
KMUS 061935Z 21012G19KT 36/10 A3002 RMK A01 T03610097  RH  021%=      5-min Rain = 0
KMUS 061940Z 22012KT 36/10 A3002 RMK A01 T03610099  RH  021%=      5-min Rain = 0
KMUS 061945Z 20009G14KT 36/10 A3001 RMK A01 T03630095  RH  020%=      5-min Rain = 0
KMUS 061950Z 21010G18KT 37/09 A3001 RMK A01 T03690088  RH  019%=      5-min Rain = 0
KMUS 061955Z 21012KT 37/10 A30 RMK A01 T03690095  RH  020%=      5-min Rain = 0
KMUS 062000Z 19009G15KT 37/09 A30 RMK A01 T03690089  RH  019%=      5-min Rain = 0
KMUS 062005Z 19009G14KT 37/10 A30 RMK A01 T03670097  RH  020%=      5-min Rain = 0
KMUS 062010Z 19008G14KT 37/10 A30 RMK A01 T03710097  RH  020%=      5-min Rain = 0
KMUS 062015Z 20008G14KT 37/09 A30 RMK A01 T03710092  RH  019%=      5-min Rain = 0
KMUS 062020Z 19014G20KT 37/08 A2999 RMK A01 T03720082  RH  018%=      5-min Rain = 0
KMUS 062025Z 20018G26KT 37/08 A2999 RMK A01 T03700082  RH  018%=      5-min Rain = 0
KMUS 062030Z 19013G19KT 37/08 A30 RMK A01 T03700081  RH  018%=      5-min Rain = 0
KMUS 062035Z 19012KT 37/07 A30 RMK A01 T03660073  RH  017%=      5-min Rain = 0
KMUS 062040Z 18008G13KT 35/08 A30 RMK A01 T03540075  RH  018%=      5-min Rain = 0
KMUS 062045Z 18010G17KT 35/08 A30 RMK A01 T03500082  RH  020%=      5-min Rain = 0
KMUS 062050Z 20015G20KT 35/09 A30 RMK A01 T03470085  RH  021%=      5-min Rain = 0
KMUS 062055Z 21017G22KT 34/09 A30 RMK A01 T03430090  RH  022%=      5-min Rain = 0
KMUS 062100Z 20015KT 34/09 A30 RMK A01 T03400091  RH  022%=      5-min Rain = 0
KMUS 062105Z 21013G18KT 34/09 A2999 RMK A01 T03440091  RH  022%=      5-min Rain = 0
KMUS 062110Z 23014G21KT 34/10 A2999 RMK A01 T03390099  RH  024%=      5-min Rain = 0
KMUS 062115Z 22012KT 34/10 A30 RMK A01 T03350100  RH  025%=      5-min Rain = 0
KMUS 062120Z 22011KT 33/10 A2999 RMK A01 T03320097  RH  024%=      5-min Rain = 0
KMUS 062125Z 22013KT 33/10 A2999 RMK A01 T03300096  RH  025%=      5-min Rain = 0
KMUS 062130Z 22010KT 33/10 A2999 RMK A01 T03280104  RH  026%=      5-min Rain = 0
KMUS 062135Z 22010KT 33/11 A2998 RMK A01 T03330111  RH  027%=      5-min Rain = 0
KMUS 062140Z 22013KT 34/11 A2998 RMK A01 T03430106  RH  024%=      5-min Rain = 0
KMUS 062145Z 22012KT 35/10 A2998 RMK A01 T03460099  RH  023%=      5-min Rain = 0
KMUS 062150Z 21010KT 34/09 A2998 RMK A01 T03420094  RH  023%=      5-min Rain = 0
KMUS 062155Z 20009KT 34/10 A2998 RMK A01 T03380100  RH  024%=      5-min Rain = 0
KMUS 062200Z 19007KT 34/10 A2997 RMK A01 T03350101  RH  025%=      5-min Rain = 0
KMUS 062205Z 18008KT 34/10 A2997 RMK A01 T03360104  RH  025%=      5-min Rain = 0
KMUS 062210Z 18009KT 34/11 A2997 RMK A01 T03410105  RH  024%=      5-min Rain = 0
KMUS 062215Z 19006KT 34/11 A2997 RMK A01 T03410107  RH  025%=      5-min Rain = 0
KMUS 062220Z 20006KT 34/10 A2997 RMK A01 T03400103  RH  024%=      5-min Rain = 0
KMUS 062225Z 18012G17KT 35/11 A2997 RMK A01 T03480112  RH  025%=      5-min Rain = 0
KMUS 062230Z 18016KT 36/11 A2997 RMK A01 T03570105  RH  022%=      5-min Rain = 0
KMUS 062235Z 18016G23KT 36/10 A2997 RMK A01 T03600097  RH  021%=      5-min Rain = 0
KMUS 062240Z 18015G21KT 36/10 A2997 RMK A01 T03620098  RH  021%=      5-min Rain = 0
KMUS 062245Z 18019KT 36/10 A2997 RMK A01 T03580101  RH  022%=      5-min Rain = 0
KMUS 062250Z 17016KT 35/10 A2997 RMK A01 T03520101  RH  022%=      5-min Rain = 0
KMUS 062255Z 17017G22KT 35/10 A2997 RMK A01 T03500102  RH  023%=      5-min Rain = 0
KMUS 062300Z 16013KT 35/10 A2997 RMK A01 T03490095  RH  022%=      5-min Rain = 0
KMUS 062305Z 16012KT 35/10 A2996 RMK A01 T03530100  RH  022%=      5-min Rain = 0
KMUS 062310Z 17012KT 35/10 A2996 RMK A01 T03530098  RH  022%=      5-min Rain = 0
KMUS 062315Z 16012KT 35/10 A2996 RMK A01 T03530099  RH  022%=      5-min Rain = 0
KMUS 062320Z 17011G16KT 35/10 A2996 RMK A01 T03530100  RH  022%=      5-min Rain = 0
KMUS 062325Z 19011KT 36/10 A2996 RMK A01 T03560103  RH  022%=      5-min Rain = 0
KMUS 062330Z 19011KT 36/10 A2996 RMK A01 T03560101  RH  022%=      5-min Rain = 0
KMUS 062335Z 19012KT 36/10 A2996 RMK A01 T03570096  RH  021%=      5-min Rain = 0
KMUS 062340Z 18012G17KT 36/10 A2996 RMK A01 T03590098  RH  021%=      5-min Rain = 0
KMUS 062345Z 17010KT 36/10 A2996 RMK A01 T03590100  RH  021%=      5-min Rain = 0
KMUS 062350Z 17013G20KT 36/10 A2995 RMK A01 T03550099  RH  022%=      5-min Rain = 0
KMUS 062355Z 18016G22KT 35/10 A2995 RMK A01 T03480100  RH  023%=      5-min Rain = 0
KMUS 070000Z 18016G21KT 34/11 A2995 RMK A01 T03430113  RH  026%=      5-min Rain = 0
KMUS 070005Z 18016G22KT 34/11 A2995 RMK A01 T03410109  RH  025%=      5-min Rain = 0
KMUS 070010Z 18015G21KT 34/10 A2996 RMK A01 T03400101  RH  024%=      5-min Rain = 0
KMUS 070015Z 18013G18KT 34/10 A2996 RMK A01 T03380097  RH  023%=      5-min Rain = 0
KMUS 070020Z 19010G15KT 34/09 A2996 RMK A01 T03400094  RH  023%=      5-min Rain = 0
KMUS 070025Z 19013KT 34/10 A2996 RMK A01 T03350096  RH  024%=      5-min Rain = 0
KMUS 070030Z 19014G19KT 33/10 A2996 RMK A01 T03310102  RH  025%=      5-min Rain = 0
KMUS 070035Z 19015G24KT 33/10 A2996 RMK A01 T03300099  RH  025%=      5-min Rain = 0
KMUS 070040Z 19015G20KT 33/10 A2996 RMK A01 T03260101  RH  026%=      5-min Rain = 0
KMUS 070045Z 19014KT 32/10 A2996 RMK A01 T03210099  RH  026%=      5-min Rain = 0
KMUS 070050Z 18012KT 32/10 A2996 RMK A01 T03180101  RH  027%=      5-min Rain = 0
KMUS 070055Z 18012KT 32/10 A2996 RMK A01 T03150103  RH  028%=      5-min Rain = 0
KMUS 070100Z 17012G17KT 31/10 A2996 RMK A01 T03130104  RH  029%=      5-min Rain = 0
KMUS 070105Z 17012KT 31/11 A2996 RMK A01 T03120105  RH  029%=      5-min Rain = 0
KMUS 070110Z 17012KT 31/10 A2996 RMK A01 T03120102  RH  028%=      5-min Rain = 0
KMUS 070115Z 17012KT 31/10 A2997 RMK A01 T03110099  RH  028%=      5-min Rain = 0
KMUS 070120Z 17015G20KT 31/09 A2997 RMK A01 T03120091  RH  026%=      5-min Rain = 0
KMUS 070125Z 17017KT 32/09 A2998 RMK A01 T03150090  RH  026%=      5-min Rain = 0
KMUS 070130Z 17017G22KT 31/10 A2999 RMK A01 T03140098  RH  027%=      5-min Rain = 0
KMUS 070135Z 18019G29KT 31/10 A30 RMK A01 T03110104  RH  029%=      5-min Rain = 0
KMUS 070140Z 19023G31KT 30/11 A3001 RMK A01 T03010112  RH  032%=      5-min Rain = 0
KMUS 070145Z 19022G31KT 29/12 A3001 RMK A01 T02930115  RH  035%=      5-min Rain = 0
KMUS 070150Z 19021G27KT 29/12 A3001 RMK A01 T02890119  RH  036%=      5-min Rain = 0
KMUS 070155Z 19020G27KT 29/12 A3001 RMK A01 T02860119  RH  037%=      5-min Rain = 0
KMUS 070200Z 19015G20KT 28/12 A3001 RMK A01 T02830120  RH  038%=      5-min Rain = 0
KMUS 070205Z 19016G21KT 28/12 A3001 RMK A01 T02820121  RH  038%=      5-min Rain = 0
KMUS 070210Z 19013G20KT 28/12 A3001 RMK A01 T02790121  RH  039%=      5-min Rain = 0
KMUS 070215Z 19013G19KT 28/12 A3001 RMK A01 T02790119  RH  039%=      5-min Rain = 0
KMUS 070220Z 19014G19KT 28/12 A3001 RMK A01 T02780117  RH  038%=      5-min Rain = 0
KMUS 070225Z 19012G17KT 28/12 A3001 RMK A01 T02760118  RH  039%=      5-min Rain = 0
KMUS 070230Z 20013G18KT 28/12 A3001 RMK A01 T02750116  RH  038%=      5-min Rain = 0
KMUS 070235Z 20011KT 27/12 A3001 RMK A01 T02730117  RH  039%=      5-min Rain = 0
KMUS 070240Z 20013KT 27/12 A3001 RMK A01 T02720116  RH  039%=      5-min Rain = 0
KMUS 070245Z 20013KT 27/12 A3001 RMK A01 T02710116  RH  039%=      5-min Rain = 0
KMUS 070250Z 20012KT 27/12 A3001 RMK A01 T02710115  RH  039%=      5-min Rain = 0
KMUS 070255Z 20013KT 27/12 A3001 RMK A01 T02700115  RH  039%=      5-min Rain = 0
KMUS 070300Z 20013G18KT 27/12 A3001 RMK A01 T02700115  RH  040%=      5-min Rain = 0
KMUS 070305Z 19013KT 27/12 A3001 RMK A01 T02700115  RH  039%=      5-min Rain = 0
KMUS 070310Z 20012KT 27/12 A3001 RMK A01 T02690115  RH  040%=      5-min Rain = 0
KMUS 070315Z 20012G17KT 27/12 A3001 RMK A01 T02680115  RH  040%=      5-min Rain = 0
KMUS 070320Z 20013KT 27/11 A3001 RMK A01 T02680114  RH  040%=      5-min Rain = 0
KMUS 070325Z 19012KT 27/11 A3001 RMK A01 T02670114  RH  040%=      5-min Rain = 0
KMUS 070330Z 19012KT 27/11 A3001 RMK A01 T02660114  RH  040%=      5-min Rain = 0
KMUS 070335Z 19012G17KT 27/11 A3001 RMK A01 T02660113  RH  040%=      5-min Rain = 0
KMUS 070340Z 18014KT 27/11 A3001 RMK A01 T02660112  RH  040%=      5-min Rain = 0
KMUS 070345Z 18015KT 27/11 A3001 RMK A01 T02660111  RH  039%=      5-min Rain = 0
KMUS 070350Z 18014G19KT 27/11 A30 RMK A01 T02650111  RH  040%=      5-min Rain = 0
KMUS 070355Z 19013G18KT 26/11 A30 RMK A01 T02640111  RH  040%=      5-min Rain = 0
KMUS 070400Z 19012G17KT 26/11 A3001 RMK A01 T02620112  RH  040%=      5-min Rain = 0
KMUS 070405Z 19012KT 26/11 A3001 RMK A01 T02620113  RH  041%=      5-min Rain = 0
KMUS 070410Z 19012G17KT 26/11 A3001 RMK A01 T02590114  RH  042%=      5-min Rain = 0
KMUS 070415Z 19011KT 26/12 A3001 RMK A01 T02580116  RH  043%=      5-min Rain = 0
KMUS 070420Z 19012KT 26/12 A3001 RMK A01 T02560119  RH  044%=      5-min Rain = 0
KMUS 070425Z 19011KT 25/12 A3001 RMK A01 T02540120  RH  045%=      5-min Rain = 0
KMUS 070430Z 19011KT 25/12 A3002 RMK A01 T02520121  RH  046%=      5-min Rain = 0
KMUS 070435Z 19010KT 25/12 A3002 RMK A01 T02510122  RH  046%=      5-min Rain = 0
KMUS 070440Z 19010KT 25/12 A3002 RMK A01 T02490122  RH  047%=      5-min Rain = 0
KMUS 070445Z 20010G15KT 25/12 A3002 RMK A01 T02470122  RH  047%=      5-min Rain = 0
KMUS 070450Z 20011KT 25/12 A3002 RMK A01 T02470122  RH  047%=      5-min Rain = 0
KMUS 070455Z 21009KT 25/12 A3002 RMK A01 T02450123  RH  048%=      5-min Rain = 0

Page generated in 0.0085 seconds.